Time;durP1;ratioP1;P1;durP2;ratioP2;P2;SDS_P1;SDS_P2;PMS_P1;PMS_P2;Temp;Humidity;BMP_temperature;BMP_pressure;BME280_temperature;BME280_humidity;BME280_pressure;Samples;Min_cycle;Max_cycle;Signal;HPM_P1;HPM_P2
2024/03/07 00:01:23;;;;;;;4.95;4.55;;;;;;;;;;5040000;28;20182;-94
2024/03/07 00:03:51;;;;;;;5.70;5.18;;;;;;;;;;5039731;28;20187;-93
2024/03/07 00:06:20;;;;;;;5.45;4.95;;;;;;;;;;5039936;28;20322;-94
2024/03/07 00:08:48;;;;;;;5.47;4.93;;;;;;;;;;5039641;28;20215;-93
2024/03/07 00:11:17;;;;;;;5.28;4.82;;;;;;;;;;5039742;28;20404;-93
2024/03/07 00:13:45;;;;;;;4.63;4.28;;;;;;;;;;5039523;28;20187;-94
2024/03/07 00:16:13;;;;;;;5.13;4.70;;;;;;;;;;5039674;28;20182;-94
2024/03/07 00:18:42;;;;;;;5.65;5.00;;;;;;;;;;5039548;28;20202;-94
2024/03/07 00:21:10;;;;;;;8.15;5.25;;;;;;;;;;5039567;28;20206;-94
2024/03/07 00:23:38;;;;;;;5.50;5.00;;;;;;;;;;5039401;28;20179;-96
2024/03/07 00:26:06;;;;;;;5.68;5.18;;;;;;;;;;5039579;28;20195;-94
2024/03/07 00:28:39;;;;;;;7.00;6.30;;;;;;;;;;5039328;28;20218;-93
2024/03/07 00:31:08;;;;;;;6.57;5.88;;;;;;;;;;5039387;28;20180;-94
2024/03/07 00:33:36;;;;;;;8.57;7.78;;;;;;;;;;5038475;28;20239;-93
2024/03/07 00:36:07;;;;;;;9.23;7.50;;;;;;;;;;5039331;28;20179;-94
2024/03/07 00:38:34;;;;;;;8.55;7.65;;;;;;;;;;5039064;28;20199;-95
2024/03/07 00:41:02;;;;;;;9.82;7.97;;;;;;;;;;5039106;28;20187;-96
2024/03/07 00:43:30;;;;;;;9.48;7.82;;;;;;;;;;5039133;28;20206;-94
2024/03/07 00:45:58;;;;;;;8.43;7.60;;;;;;;;;;5039111;28;20175;-93
2024/03/07 00:48:26;;;;;;;9.30;8.05;;;;;;;;;;5038868;28;20218;-95
2024/03/07 00:50:53;;;;;;;9.00;8.10;;;;;;;;;;5038949;28;20194;-93
2024/03/07 00:53:22;;;;;;;9.15;8.25;;;;;;;;;;5038840;28;20210;-94
2024/03/07 00:55:50;;;;;;;6.53;6.00;;;;;;;;;;5038908;28;20179;-94
2024/03/07 00:58:18;;;;;;;8.35;7.53;;;;;;;;;;5038743;28;20207;-94
2024/03/07 01:00:45;;;;;;;11.35;8.40;;;;;;;;;;5038908;28;20213;-94
2024/03/07 01:03:13;;;;;;;8.27;7.47;;;;;;;;;;5038644;28;20180;-93
2024/03/07 01:05:40;;;;;;;7.25;6.55;;;;;;;;;;5038748;28;20202;-95
2024/03/07 01:08:08;;;;;;;10.70;8.32;;;;;;;;;;5038595;28;20190;-94
2024/03/07 01:10:37;;;;;;;10.52;8.43;;;;;;;;;;5038678;28;20190;-93
2024/03/07 01:13:07;;;;;;;10.35;8.05;;;;;;;;;;5038433;28;20183;-93
2024/03/07 01:15:36;;;;;;;8.82;7.93;;;;;;;;;;5038581;28;20187;-95
2024/03/07 01:18:04;;;;;;;8.82;7.00;;;;;;;;;;5038494;28;20243;-94
2024/03/07 01:20:32;;;;;;;8.52;7.35;;;;;;;;;;5038550;28;20199;-94
2024/03/07 01:22:59;;;;;;;10.07;7.85;;;;;;;;;;5038359;28;20210;-94
2024/03/07 01:25:28;;;;;;;9.10;7.40;;;;;;;;;;5038389;28;20218;-94
2024/03/07 01:27:57;;;;;;;8.48;7.65;;;;;;;;;;5038233;28;20203;-95
2024/03/07 01:30:27;;;;;;;12.05;8.70;;;;;;;;;;5038366;28;20206;-94
2024/03/07 01:32:55;;;;;;;10.73;8.80;;;;;;;;;;5038115;28;20198;-96
2024/03/07 01:35:23;;;;;;;9.93;8.20;;;;;;;;;;5038291;28;20199;-94
2024/03/07 01:37:51;;;;;;;9.93;8.23;;;;;;;;;;5038177;28;20195;-95
2024/03/07 01:40:20;;;;;;;10.77;8.85;;;;;;;;;;5038133;28;20213;-95
2024/03/07 01:42:49;;;;;;;9.02;8.05;;;;;;;;;;5037976;28;20190;-95
2024/03/07 01:45:19;;;;;;;10.32;9.35;;;;;;;;;;5037895;28;20179;-94
2024/03/07 01:47:46;;;;;;;10.48;9.00;;;;;;;;;;5038191;28;20243;-94
2024/03/07 01:50:13;;;;;;;7.47;6.78;;;;;;;;;;5037864;28;20222;-93
2024/03/07 01:52:42;;;;;;;7.65;6.93;;;;;;;;;;5037748;28;20210;-96
2024/03/07 01:55:10;;;;;;;9.20;7.97;;;;;;;;;;5037934;28;20183;-94
2024/03/07 01:57:38;;;;;;;11.32;9.00;;;;;;;;;;5037762;28;20198;-95
2024/03/07 02:00:09;;;;;;;11.40;9.43;;;;;;;;;;5037771;28;20195;-95
2024/03/07 02:02:38;;;;;;;9.73;8.73;;;;;;;;;;5037724;28;20193;-96
2024/03/07 02:05:07;;;;;;;10.13;8.23;;;;;;;;;;5037820;28;20186;-95
2024/03/07 02:07:34;;;;;;;10.00;8.30;;;;;;;;;;5037817;28;20190;-93
2024/03/07 02:10:03;;;;;;;9.57;7.80;;;;;;;;;;5037551;28;20225;-94
2024/03/07 02:12:31;;;;;;;11.70;9.60;;;;;;;;;;5037523;28;20214;-96
2024/03/07 02:15:00;;;;;;;9.55;8.55;;;;;;;;;;5037813;28;20227;-95
2024/03/07 02:17:28;;;;;;;9.98;8.98;;;;;;;;;;5037840;28;20183;-94
2024/03/07 02:19:58;;;;;;;8.40;7.53;;;;;;;;;;5037584;28;20226;-94
2024/03/07 02:22:28;;;;;;;10.23;9.15;;;;;;;;;;5037356;28;20227;-96
2024/03/07 02:24:55;;;;;;;10.23;8.30;;;;;;;;;;5037680;28;20175;-95
2024/03/07 02:27:23;;;;;;;13.13;10.43;;;;;;;;;;5037801;28;20175;-94
2024/03/07 02:29:51;;;;;;;10.38;9.25;;;;;;;;;;5037580;28;20230;-94
2024/03/07 02:32:19;;;;;;;12.15;9.95;;;;;;;;;;5037406;28;20206;-94
2024/03/07 02:34:46;;;;;;;15.70;10.15;;;;;;;;;;5037752;28;20180;-94
2024/03/07 02:37:14;;;;;;;12.07;9.73;;;;;;;;;;5037540;28;20194;-95
2024/03/07 02:39:43;;;;;;;12.85;9.68;;;;;;;;;;5037274;28;20210;-94
2024/03/07 02:42:11;;;;;;;13.05;9.30;;;;;;;;;;5037234;28;20187;-94
2024/03/07 02:44:39;;;;;;;12.77;10.27;;;;;;;;;;5037447;28;20199;-95
2024/03/07 02:47:07;;;;;;;10.65;9.10;;;;;;;;;;5037409;28;20197;-95
2024/03/07 02:49:35;;;;;;;11.90;9.57;;;;;;;;;;5037117;28;20219;-94
2024/03/07 02:52:07;;;;;;;11.48;10.27;;;;;;;;;;5037124;28;20218;-96
2024/03/07 02:54:34;;;;;;;9.02;7.47;;;;;;;;;;5037415;28;20191;-93
2024/03/07 02:57:04;;;;;;;8.50;7.78;;;;;;;;;;5037689;28;20182;-93
2024/03/07 02:59:32;;;;;;;9.27;7.90;;;;;;;;;;5040998;28;20211;-94
2024/03/07 03:02:00;;;;;;;9.77;8.45;;;;;;;;;;5040970;28;20187;-94
2024/03/07 03:04:27;;;;;;;9.23;8.32;;;;;;;;;;5041162;28;20187;-93
2024/03/07 03:06:56;;;;;;;8.57;7.38;;;;;;;;;;5041185;28;20183;-94
2024/03/07 03:09:23;;;;;;;10.88;8.65;;;;;;;;;;5040858;28;20218;-94
2024/03/07 03:11:51;;;;;;;9.30;8.18;;;;;;;;;;5040796;28;20185;-95
2024/03/07 03:14:21;;;;;;;8.38;7.30;;;;;;;;;;5040868;28;20187;-94
2024/03/07 03:16:48;;;;;;;7.78;6.90;;;;;;;;;;5040829;28;20179;-94
2024/03/07 03:19:16;;;;;;;8.13;6.80;;;;;;;;;;5040646;28;20214;-94
2024/03/07 03:21:44;;;;;;;6.75;6.15;;;;;;;;;;5040762;28;20183;-94
2024/03/07 03:24:11;;;;;;;8.32;7.22;;;;;;;;;;5040689;28;20191;-93
2024/03/07 03:26:42;;;;;;;7.28;6.40;;;;;;;;;;5040675;28;20214;-93
2024/03/07 03:29:11;;;;;;;6.88;6.18;;;;;;;;;;5040588;28;20227;-94
2024/03/07 03:31:40;;;;;;;9.57;7.55;;;;;;;;;;5040444;28;20223;-94
2024/03/07 03:34:09;;;;;;;7.68;6.10;;;;;;;;;;5040542;28;20193;-94
2024/03/07 03:36:37;;;;;;;8.93;7.80;;;;;;;;;;5040479;28;20214;-95
2024/03/07 03:39:06;;;;;;;9.52;8.57;;;;;;;;;;5040252;28;20223;-94
2024/03/07 03:41:35;;;;;;;10.88;8.82;;;;;;;;;;5040476;28;20207;-94
2024/03/07 03:44:03;;;;;;;9.43;8.32;;;;;;;;;;5040177;28;20191;-94
2024/03/07 03:46:31;;;;;;;11.02;8.73;;;;;;;;;;5040396;28;20183;-94
2024/03/07 03:49:00;;;;;;;7.65;6.93;;;;;;;;;;5040203;28;20203;-95
2024/03/07 03:51:27;;;;;;;10.35;9.07;;;;;;;;;;5040086;28;20224;-94
2024/03/07 03:53:55;;;;;;;10.95;9.85;;;;;;;;;;5040080;28;20230;-95
2024/03/07 03:56:24;;;;;;;8.40;7.50;;;;;;;;;;5039955;28;20184;-94
2024/03/07 03:58:52;;;;;;;7.35;6.60;;;;;;;;;;5039899;28;20243;-95
2024/03/07 04:01:20;;;;;;;7.25;6.55;;;;;;;;;;5039977;28;20187;-95
2024/03/07 04:03:47;;;;;;;8.45;7.03;;;;;;;;;;5039760;28;20194;-94
2024/03/07 04:06:16;;;;;;;8.93;8.02;;;;;;;;;;5039923;28;20183;-95
2024/03/07 04:08:44;;;;;;;8.32;7.13;;;;;;;;;;5039754;28;20207;-94
2024/03/07 04:11:12;;;;;;;11.45;8.77;;;;;;;;;;5039756;28;20210;-95
2024/03/07 04:13:39;;;;;;;11.27;9.65;;;;;;;;;;5039697;28;20193;-95
2024/03/07 04:16:08;;;;;;;9.52;7.05;;;;;;;;;;5039690;28;20199;-93
2024/03/07 04:18:36;;;;;;;11.60;8.73;;;;;;;;;;5039633;28;20230;-94
2024/03/07 04:21:04;;;;;;;12.43;8.75;;;;;;;;;;5039500;28;20214;-95
2024/03/07 04:23:33;;;;;;;8.98;8.07;;;;;;;;;;5039454;28;20304;-94
2024/03/07 04:26:00;;;;;;;9.95;8.95;;;;;;;;;;5038934;28;20186;-96
2024/03/07 04:28:28;;;;;;;10.63;9.02;;;;;;;;;;5039462;28;20211;-94
2024/03/07 04:30:56;;;;;;;10.52;8.57;;;;;;;;;;5039382;28;20238;-95
2024/03/07 04:33:24;;;;;;;10.27;9.23;;;;;;;;;;5039310;28;20195;-94
2024/03/07 04:35:53;;;;;;;8.95;8.00;;;;;;;;;;5039426;28;20206;-94
2024/03/07 04:38:21;;;;;;;7.60;6.80;;;;;;;;;;5039224;28;20195;-95
2024/03/07 04:40:50;;;;;;;10.93;8.75;;;;;;;;;;5039279;28;20206;-94
2024/03/07 04:43:18;;;;;;;7.47;6.68;;;;;;;;;;5039155;28;20187;-94
2024/03/07 04:45:46;;;;;;;6.07;5.47;;;;;;;;;;5039374;28;20210;-94
2024/03/07 04:48:14;;;;;;;6.97;6.22;;;;;;;;;;5039077;28;20202;-94
2024/03/07 04:50:42;;;;;;;5.35;4.85;;;;;;;;;;5039066;28;20214;-95
2024/03/07 04:53:09;;;;;;;6.13;5.18;;;;;;;;;;5038951;28;20223;-93
2024/03/07 04:55:37;;;;;;;9.40;7.18;;;;;;;;;;5039050;28;20198;-94
2024/03/07 04:58:06;;;;;;;8.25;7.38;;;;;;;;;;5038592;28;20190;-94
2024/03/07 05:00:34;;;;;;;10.07;8.40;;;;;;;;;;5038824;28;20230;-93
2024/03/07 05:03:04;;;;;;;12.30;8.15;;;;;;;;;;5038645;28;20178;-93
2024/03/07 05:05:31;;;;;;;13.25;9.57;;;;;;;;;;5038941;28;20183;-95
2024/03/07 05:07:59;;;;;;;11.18;9.50;;;;;;;;;;5038800;28;20189;-94
2024/03/07 05:10:29;;;;;;;10.68;9.00;;;;;;;;;;5038629;28;20183;-94
2024/03/07 05:12:58;;;;;;;11.73;9.18;;;;;;;;;;5038596;28;20262;-95
2024/03/07 05:15:27;;;;;;;8.73;7.28;;;;;;;;;;5038743;28;20186;-94
2024/03/07 05:17:56;;;;;;;12.00;8.85;;;;;;;;;;5038568;28;20203;-93
2024/03/07 05:20:24;;;;;;;11.00;9.90;;;;;;;;;;5038146;28;20203;-94
2024/03/07 05:22:52;;;;;;;12.98;10.43;;;;;;;;;;5038337;28;20197;-95
2024/03/07 05:25:19;;;;;;;11.63;9.80;;;;;;;;;;5038278;28;20194;-93
2024/03/07 05:27:50;;;;;;;9.80;8.80;;;;;;;;;;5038206;28;20195;-94
2024/03/07 05:30:17;;;;;;;7.97;7.18;;;;;;;;;;5038232;28;20206;-93
2024/03/07 05:32:47;;;;;;;7.15;6.45;;;;;;;;;;5038136;28;20219;-94
2024/03/07 05:35:16;;;;;;;6.93;6.15;;;;;;;;;;5038353;28;20199;-94
2024/03/07 05:37:46;;;;;;;8.10;7.35;;;;;;;;;;5038194;28;20218;-94
2024/03/07 05:40:14;;;;;;;11.68;9.63;;;;;;;;;;5038103;28;20230;-93
2024/03/07 05:42:42;;;;;;;11.50;9.90;;;;;;;;;;5038023;28;20179;-93
2024/03/07 05:45:10;;;;;;;14.18;10.65;;;;;;;;;;5037999;28;20190;-93
2024/03/07 05:47:38;;;;;;;10.38;8.57;;;;;;;;;;5038074;28;20182;-92
2024/03/07 05:50:09;;;;;;;13.60;10.30;;;;;;;;;;5037957;28;20215;-93
2024/03/07 05:52:36;;;;;;;11.30;10.10;;;;;;;;;;5037411;28;20287;-93
2024/03/07 05:55:06;;;;;;;10.25;8.63;;;;;;;;;;5035006;28;20183;-93
2024/03/07 05:57:33;;;;;;;7.82;7.03;;;;;;;;;;5033482;28;20203;-92
2024/03/07 06:00:09;;;;;;;11.27;10.15;;;;;;;;;;5034897;28;20223;-94
2024/03/07 06:02:37;;;;;;;9.52;8.57;;;;;;;;;;5036052;28;20202;-93
2024/03/07 06:05:12;;;;;;;8.23;7.38;;;;;;;;;;5036124;28;20198;-92
2024/03/07 06:07:40;;;;;;;6.30;5.68;;;;;;;;;;5037013;28;20186;-92
2024/03/07 06:10:11;;;;;;;9.55;7.97;;;;;;;;;;5037400;28;20270;-93
2024/03/07 06:12:40;;;;;;;10.07;8.25;;;;;;;;;;5036369;28;20269;-93
2024/03/07 06:15:09;;;;;;;10.43;9.43;;;;;;;;;;5037114;28;20210;-93
2024/03/07 06:17:36;;;;;;;8.38;7.43;;;;;;;;;;5036798;28;20186;-93
2024/03/07 06:20:22;;;;;;;9.60;8.48;;;;;;;;;;5036382;28;20235;-93
2024/03/07 06:22:50;;;;;;;9.63;8.27;;;;;;;;;;5037356;28;20236;-92
2024/03/07 06:50:21;;;;;;;11.43;10.23;;;;;;;;;;6296930;22;1592784;-94
2024/03/07 06:52:54;;;;;;;16.08;13.70;;;;;;;;;;6289513;22;20169;-91
2024/03/07 08:08:12;;;;;;;11.13;9.93;;;;;;;;;;6263066;22;20226;-93
2024/03/07 08:10:41;;;;;;;11.90;9.82;;;;;;;;;;6296939;22;20171;-93
2024/03/07 08:13:10;;;;;;;13.10;10.10;;;;;;;;;;6296015;22;20168;-93
2024/03/07 08:15:38;;;;;;;9.18;8.18;;;;;;;;;;6300831;22;20168;-91
2024/03/07 08:18:08;;;;;;;9.95;8.93;;;;;;;;;;6304831;22;20200;-91
2024/03/07 08:20:36;;;;;;;15.10;12.13;;;;;;;;;;6290251;22;20196;-91
2024/03/07 08:23:04;;;;;;;12.35;9.57;;;;;;;;;;6276446;22;20188;-91
2024/03/07 08:25:33;;;;;;;12.48;10.57;;;;;;;;;;6276536;22;20620;-90
2024/03/07 08:28:02;;;;;;;11.10;9.95;;;;;;;;;;6276168;22;20271;-92
2024/03/07 08:30:30;;;;;;;12.10;10.07;;;;;;;;;;6276356;22;20267;-91
2024/03/07 08:32:58;;;;;;;11.05;9.65;;;;;;;;;;6276507;22;20188;-91
2024/03/07 08:35:27;;;;;;;12.65;9.98;;;;;;;;;;6276769;22;20192;-92
2024/03/07 08:37:57;;;;;;;12.95;11.00;;;;;;;;;;6275983;22;20243;-92
2024/03/07 08:40:26;;;;;;;9.85;8.85;;;;;;;;;;6276822;22;20188;-91
2024/03/07 08:42:57;;;;;;;9.23;7.80;;;;;;;;;;6276484;22;20168;-92
2024/03/07 08:45:25;;;;;;;14.32;9.90;;;;;;;;;;6276707;22;20536;-92
2024/03/07 08:47:55;;;;;;;10.38;9.23;;;;;;;;;;6277645;22;20199;-91
2024/03/07 08:50:26;;;;;;;15.63;13.27;;;;;;;;;;6276714;22;20192;-92
2024/03/07 08:52:53;;;;;;;11.35;10.15;;;;;;;;;;6276945;22;20168;-93
2024/03/07 08:55:24;;;;;;;9.75;8.75;;;;;;;;;;6276618;22;20171;-92
2024/03/07 08:57:52;;;;;;;12.05;10.15;;;;;;;;;;6276391;22;20260;-92
2024/03/07 09:00:23;;;;;;;11.38;10.25;;;;;;;;;;6275791;22;20204;-93
2024/03/07 09:02:52;;;;;;;13.35;11.25;;;;;;;;;;6278918;22;20172;-91
2024/03/07 09:05:21;;;;;;;12.55;10.50;;;;;;;;;;6275959;22;20628;-92
2024/03/07 09:07:49;;;;;;;9.75;8.75;;;;;;;;;;6276025;22;20165;-93
2024/03/07 09:10:18;;;;;;;15.65;12.10;;;;;;;;;;6277455;22;20250;-93
2024/03/07 09:12:48;;;;;;;16.13;11.00;;;;;;;;;;6284159;22;20166;-93
2024/03/07 09:15:16;;;;;;;14.18;11.55;;;;;;;;;;6280750;22;20168;-92
2024/03/07 09:17:47;;;;;;;17.67;12.40;;;;;;;;;;6276689;22;20165;-92
2024/03/07 09:20:15;;;;;;;11.95;9.82;;;;;;;;;;6276619;22;20196;-93
2024/03/07 09:22:43;;;;;;;15.45;11.52;;;;;;;;;;6291798;22;20148;-94
2024/03/07 09:25:12;;;;;;;11.65;9.75;;;;;;;;;;6273581;22;20187;-94
2024/03/07 09:27:40;;;;;;;14.13;10.13;;;;;;;;;;6304089;22;20207;-94
2024/03/07 09:30:14;;;;;;;12.90;10.50;;;;;;;;;;6298633;22;20209;-93
2024/03/07 09:32:42;;;;;;;15.48;11.18;;;;;;;;;;6271198;22;20192;-93
2024/03/07 09:35:13;;;;;;;13.70;11.05;;;;;;;;;;6260030;22;20247;-93
2024/03/07 09:37:42;;;;;;;13.63;11.05;;;;;;;;;;6260544;23;20174;-93
2024/03/07 09:40:11;;;;;;;13.23;9.85;;;;;;;;;;6265112;22;20185;-92
2024/03/07 09:42:45;;;;;;;13.05;9.27;;;;;;;;;;6277407;22;20204;-94
2024/03/07 09:45:17;;;;;;;13.27;10.25;;;;;;;;;;6303763;22;20185;-94
2024/03/07 09:47:49;;;;;;;10.77;9.35;;;;;;;;;;6303024;22;20160;-94
2024/03/07 09:50:21;;;;;;;10.35;8.38;;;;;;;;;;6303661;22;20184;-94
2024/03/07 09:52:50;;;;;;;14.60;11.18;;;;;;;;;;6299239;22;20679;-93
2024/03/07 09:55:19;;;;;;;13.13;9.82;;;;;;;;;;6302129;22;20191;-93
2024/03/07 09:57:50;;;;;;;14.38;10.25;;;;;;;;;;6296066;22;20168;-93
2024/03/07 10:00:25;;;;;;;11.07;9.20;;;;;;;;;;6304233;22;20176;-95
2024/03/07 10:02:57;;;;;;;13.35;9.98;;;;;;;;;;6301901;22;20182;-93
2024/03/07 10:05:29;;;;;;;14.32;11.45;;;;;;;;;;6301442;22;20184;-94
2024/03/07 10:07:57;;;;;;;15.15;10.52;;;;;;;;;;6297641;22;20243;-93
2024/03/07 10:10:25;;;;;;;13.40;9.57;;;;;;;;;;6294563;22;20208;-94
2024/03/07 10:12:58;;;;;;;12.35;10.02;;;;;;;;;;6296468;22;20152;-93
2024/03/07 10:15:30;;;;;;;15.52;10.25;;;;;;;;;;6292706;22;20244;-92
2024/03/07 10:17:57;;;;;;;13.23;9.90;;;;;;;;;;6289985;22;20160;-93
2024/03/07 10:20:26;;;;;;;12.27;10.02;;;;;;;;;;6301056;22;20218;-94
2024/03/07 10:22:54;;;;;;;11.00;9.85;;;;;;;;;;6300266;22;20152;-92
2024/03/07 10:25:25;;;;;;;14.57;11.50;;;;;;;;;;6301075;22;20165;-95
2024/03/07 10:27:52;;;;;;;16.40;11.88;;;;;;;;;;6303429;22;20195;-92
2024/03/07 10:30:21;;;;;;;14.15;11.32;;;;;;;;;;6303037;22;20184;-94
2024/03/07 10:32:51;;;;;;;15.00;11.68;;;;;;;;;;6303327;22;20176;-95
2024/03/07 10:35:24;;;;;;;15.75;11.60;;;;;;;;;;6304275;22;20153;-95
2024/03/07 10:37:54;;;;;;;16.00;11.75;;;;;;;;;;6302417;22;20156;-93
2024/03/07 10:40:22;;;;;;;15.07;12.20;;;;;;;;;;6292668;22;20192;-93
2024/03/07 10:42:52;;;;;;;12.68;10.13;;;;;;;;;;6303658;22;20168;-93
2024/03/07 10:45:21;;;;;;;12.18;9.23;;;;;;;;;;6304112;22;20153;-93
2024/03/07 10:47:56;;;;;;;14.52;11.27;;;;;;;;;;6299178;22;20285;-94
2024/03/07 10:50:40;;;;;;;12.80;10.07;;;;;;;;;;6299979;22;20283;-93
2024/03/07 10:53:22;;;;;;;13.85;11.40;;;;;;;;;;6293895;22;20161;-93
2024/03/07 10:56:03;;;;;;;16.45;11.32;;;;;;;;;;6295516;22;20153;-93
2024/03/07 10:58:39;;;;;;;12.60;9.82;;;;;;;;;;6294276;22;20161;-94
2024/03/07 11:01:10;;;;;;;16.65;10.75;;;;;;;;;;6291637;22;20187;-93
2024/03/07 11:03:38;;;;;;;13.23;10.00;;;;;;;;;;6295601;22;20148;-92
2024/03/07 11:06:11;;;;;;;15.52;11.20;;;;;;;;;;6303392;22;20164;-92
2024/03/07 11:08:43;;;;;;;10.02;8.43;;;;;;;;;;6304236;22;20145;-93
2024/03/07 11:11:11;;;;;;;9.88;7.65;;;;;;;;;;6303967;22;20193;-91
2024/03/07 11:13:39;;;;;;;11.43;8.98;;;;;;;;;;6304107;22;20153;-89
2024/03/07 11:16:07;;;;;;;13.25;10.68;;;;;;;;;;6304127;22;20156;-92
2024/03/07 11:18:35;;;;;;;16.13;9.40;;;;;;;;;;6303527;22;20160;-92
2024/03/07 11:21:07;;;;;;;15.45;11.25;;;;;;;;;;6299050;22;20272;-92
2024/03/07 11:23:38;;;;;;;12.80;10.00;;;;;;;;;;6303369;22;20176;-91
2024/03/07 11:26:08;;;;;;;12.93;10.45;;;;;;;;;;6291766;22;20496;-92
2024/03/07 11:28:37;;;;;;;15.63;9.77;;;;;;;;;;6294005;22;20169;-92
2024/03/07 11:31:14;;;;;;;13.15;10.13;;;;;;;;;;6292996;22;20196;-92
2024/03/07 11:33:43;;;;;;;15.05;10.77;;;;;;;;;;6298596;22;20165;-93
2024/03/07 11:36:12;;;;;;;12.00;10.30;;;;;;;;;;6291974;22;20168;-92
2024/03/07 11:38:39;;;;;;;15.82;11.38;;;;;;;;;;6281678;22;20168;-91
2024/03/07 11:41:13;;;;;;;14.35;11.13;;;;;;;;;;6298152;22;20192;-92
2024/03/07 11:43:42;;;;;;;11.55;10.23;;;;;;;;;;6293732;22;20180;-94
2024/03/07 11:46:11;;;;;;;12.23;9.88;;;;;;;;;;6300086;22;20192;-92
2024/03/07 11:48:42;;;;;;;12.68;11.13;;;;;;;;;;6278624;22;20222;-92
2024/03/07 11:51:13;;;;;;;13.02;10.20;;;;;;;;;;6286921;22;20630;-92
2024/03/07 11:53:41;;;;;;;15.70;11.32;;;;;;;;;;6280496;22;20201;-91
2024/03/07 11:56:16;;;;;;;14.00;11.88;;;;;;;;;;6277531;22;20252;-92
2024/03/07 11:58:44;;;;;;;17.42;11.68;;;;;;;;;;6277376;22;20167;-92
2024/03/07 12:01:13;;;;;;;12.25;9.45;;;;;;;;;;6277105;22;20586;-91
2024/03/07 12:03:42;;;;;;;14.57;11.18;;;;;;;;;;6277888;22;20179;-92
2024/03/07 12:06:12;;;;;;;12.52;9.07;;;;;;;;;;6277369;22;20199;-90
2024/03/07 12:08:40;;;;;;;16.00;11.50;;;;;;;;;;6277628;22;20183;-91
2024/03/07 12:11:12;;;;;;;10.00;8.90;;;;;;;;;;6277735;22;20653;-91
2024/03/07 12:13:40;;;;;;;11.25;8.35;;;;;;;;;;6277740;22;20169;-91
2024/03/07 12:16:08;;;;;;;14.63;8.80;;;;;;;;;;6277350;22;20560;-91
2024/03/07 12:18:37;;;;;;;11.05;9.25;;;;;;;;;;6277174;22;20179;-92
2024/03/07 12:21:08;;;;;;;9.45;8.30;;;;;;;;;;6277200;22;20685;-92
2024/03/07 12:23:36;;;;;;;11.02;8.45;;;;;;;;;;6281560;22;20157;-91
2024/03/07 12:26:05;;;;;;;9.30;7.57;;;;;;;;;;6276424;22;20565;-91
2024/03/07 12:28:34;;;;;;;11.15;8.65;;;;;;;;;;6276350;22;20169;-90
2024/03/07 12:31:03;;;;;;;11.88;9.00;;;;;;;;;;6276455;22;20275;-90
2024/03/07 12:33:38;;;;;;;12.40;9.70;;;;;;;;;;6276938;22;20620;-91
2024/03/07 12:36:07;;;;;;;9.35;8.13;;;;;;;;;;6276821;22;20206;-91
2024/03/07 12:38:36;;;;;;;10.85;7.97;;;;;;;;;;6276672;22;20171;-91
2024/03/07 12:41:07;;;;;;;9.65;8.05;;;;;;;;;;6276750;22;20189;-92
2024/03/07 12:43:35;;;;;;;9.55;7.32;;;;;;;;;;6277394;22;20180;-91
2024/03/07 12:46:06;;;;;;;12.18;8.95;;;;;;;;;;6276641;22;20647;-91
2024/03/07 12:48:33;;;;;;;10.43;8.52;;;;;;;;;;6276054;22;20161;-91
2024/03/07 12:51:01;;;;;;;12.23;9.30;;;;;;;;;;6276476;22;20197;-90
2024/03/07 12:53:29;;;;;;;12.52;10.35;;;;;;;;;;6277299;22;20179;-91
2024/03/07 12:55:57;;;;;;;14.85;9.13;;;;;;;;;;6276866;22;20192;-91
2024/03/07 12:58:25;;;;;;;13.18;10.70;;;;;;;;;;6276263;22;20606;-91
2024/03/07 13:00:55;;;;;;;11.98;9.45;;;;;;;;;;6275984;22;20682;-91
2024/03/07 13:03:23;;;;;;;13.15;8.63;;;;;;;;;;6276238;22;20172;-90
2024/03/07 13:05:50;;;;;;;11.52;8.07;;;;;;;;;;6276354;22;20635;-90
2024/03/07 13:08:17;;;;;;;13.57;9.57;;;;;;;;;;6275804;22;20184;-90
2024/03/07 13:10:45;;;;;;;8.85;7.40;;;;;;;;;;6276590;22;20223;-92
2024/03/07 13:13:13;;;;;;;13.75;9.75;;;;;;;;;;6277993;22;20255;-92
2024/03/07 13:15:42;;;;;;;14.00;10.40;;;;;;;;;;6277468;22;20224;-92
2024/03/07 13:18:13;;;;;;;13.68;9.93;;;;;;;;;;6277243;22;20679;-92
2024/03/07 13:20:43;;;;;;;12.98;9.45;;;;;;;;;;6277068;22;20267;-93
2024/03/07 13:23:10;;;;;;;10.95;9.30;;;;;;;;;;6277429;22;20164;-92
2024/03/07 13:25:38;;;;;;;11.48;9.30;;;;;;;;;;6283074;22;20248;-93
2024/03/07 13:28:09;;;;;;;10.60;8.27;;;;;;;;;;6282498;22;20199;-93
2024/03/07 13:30:39;;;;;;;9.07;7.07;;;;;;;;;;6279622;22;20193;-93
2024/03/07 13:33:07;;;;;;;11.43;8.30;;;;;;;;;;6280273;22;20164;-93
2024/03/07 13:35:36;;;;;;;9.05;6.60;;;;;;;;;;6284838;22;20172;-93
2024/03/07 13:38:04;;;;;;;11.00;8.43;;;;;;;;;;6281162;22;20168;-93
2024/03/07 13:40:34;;;;;;;14.30;8.93;;;;;;;;;;6282990;22;20184;-94
2024/03/07 13:43:02;;;;;;;9.32;7.63;;;;;;;;;;6296634;22;20174;-94
2024/03/07 13:45:38;;;;;;;9.75;8.23;;;;;;;;;;6287973;22;20168;-93
2024/03/07 13:48:08;;;;;;;9.50;8.45;;;;;;;;;;6295885;22;20168;-91
2024/03/07 13:50:40;;;;;;;10.38;8.23;;;;;;;;;;6302238;22;20220;-94
2024/03/07 13:53:12;;;;;;;9.93;8.00;;;;;;;;;;6296652;22;20188;-94
2024/03/07 13:55:59;;;;;;;13.02;9.25;;;;;;;;;;6286605;22;20169;-92
2024/03/07 13:58:49;;;;;;;8.80;7.80;;;;;;;;;;6291309;22;20184;-92
2024/03/07 14:01:30;;;;;;;6.65;6.05;;;;;;;;;;6299304;22;20197;-93
2024/03/07 14:04:46;;;;;;;8.73;6.95;;;;;;;;;;6301360;22;20152;-93
2024/03/07 14:07:34;;;;;;;9.00;6.80;;;;;;;;;;6298270;22;20169;-96
2024/03/07 14:10:40;;;;;;;7.60;6.72;;;;;;;;;;6304206;22;20144;-94
2024/03/07 14:13:37;;;;;;;8.63;7.25;;;;;;;;;;6222640;22;20200;-94
2024/03/07 14:16:39;;;;;;;9.40;7.53;;;;;;;;;;6304504;22;20149;-94
2024/03/07 14:22:37;;;;;;;11.05;8.82;;;;;;;;;;6295624;22;20172;-94
2024/03/07 14:25:48;;;;;;;9.18;8.27;;;;;;;;;;6304198;22;20163;-95
2024/03/07 14:29:10;;;;;;;9.10;8.10;;;;;;;;;;6298035;22;20160;-94
2024/03/07 14:31:43;;;;;;;10.15;8.55;;;;;;;;;;6245448;22;20207;-94
2024/03/07 14:34:15;;;;;;;12.98;7.63;;;;;;;;;;6276337;22;20198;-89
2024/03/07 14:36:48;;;;;;;8.32;7.53;;;;;;;;;;6246575;23;20236;-90
2024/03/07 14:39:22;;;;;;;6.78;6.07;;;;;;;;;;6247561;23;20193;-90
2024/03/07 14:41:53;;;;;;;8.50;7.28;;;;;;;;;;6246138;23;20161;-89
2024/03/07 14:44:21;;;;;;;10.38;7.25;;;;;;;;;;6251972;23;20234;-91
2024/03/07 14:47:06;;;;;;;11.05;7.88;;;;;;;;;;6251295;23;20169;-91
2024/03/07 14:49:36;;;;;;;9.50;7.80;;;;;;;;;;6270036;22;20172;-91
2024/03/07 14:52:04;;;;;;;10.27;8.18;;;;;;;;;;6269340;23;20207;-92
2024/03/07 14:54:33;;;;;;;10.15;8.40;;;;;;;;;;6271562;23;20192;-94
2024/03/07 14:57:00;;;;;;;8.27;7.45;;;;;;;;;;6269513;22;20162;-91
2024/03/07 14:59:28;;;;;;;8.38;7.22;;;;;;;;;;6271387;23;20172;-91
2024/03/07 15:01:58;;;;;;;9.07;7.22;;;;;;;;;;6272040;23;20168;-92
2024/03/07 15:04:26;;;;;;;9.90;8.27;;;;;;;;;;6270265;22;20180;-91
2024/03/07 15:06:56;;;;;;;10.30;7.53;;;;;;;;;;6270444;23;20229;-92
2024/03/07 15:09:24;;;;;;;9.52;7.85;;;;;;;;;;6271955;22;20184;-93
2024/03/07 15:11:53;;;;;;;9.88;7.78;;;;;;;;;;6270964;23;20204;-92
2024/03/07 15:14:21;;;;;;;9.98;8.52;;;;;;;;;;6272734;22;20196;-93
2024/03/07 15:16:49;;;;;;;8.40;7.28;;;;;;;;;;6271268;23;20173;-93
2024/03/07 15:19:18;;;;;;;12.23;6.22;;;;;;;;;;6271499;23;20207;-93
2024/03/07 15:21:46;;;;;;;8.25;6.88;;;;;;;;;;6271556;23;20189;-91
2024/03/07 15:24:14;;;;;;;8.95;7.13;;;;;;;;;;6272496;22;20153;-91
2024/03/07 15:26:42;;;;;;;10.40;8.00;;;;;;;;;;6272631;23;20176;-93
2024/03/07 15:29:11;;;;;;;10.15;8.20;;;;;;;;;;6272176;23;20184;-92
2024/03/07 15:31:40;;;;;;;9.88;8.02;;;;;;;;;;6272488;23;20177;-93
2024/03/07 15:34:09;;;;;;;7.97;7.18;;;;;;;;;;6273584;22;20227;-92
2024/03/07 15:36:37;;;;;;;10.80;9.00;;;;;;;;;;6273412;22;20157;-92
2024/03/07 15:39:19;;;;;;;9.40;8.45;;;;;;;;;;6273169;22;20153;-91
2024/03/07 15:41:47;;;;;;;8.93;7.72;;;;;;;;;;6271353;23;20165;-93
2024/03/07 15:44:16;;;;;;;8.52;7.35;;;;;;;;;;6274881;22;20168;-91
2024/03/07 15:46:44;;;;;;;9.38;8.52;;;;;;;;;;6274929;22;20145;-92
2024/03/07 15:49:12;;;;;;;10.65;8.23;;;;;;;;;;6273858;22;20165;-91
2024/03/07 15:51:41;;;;;;;10.43;8.50;;;;;;;;;;6273816;22;20173;-91
2024/03/07 15:54:11;;;;;;;8.20;7.40;;;;;;;;;;6273353;22;20192;-92
2024/03/07 15:56:39;;;;;;;9.77;8.55;;;;;;;;;;6271737;23;20188;-92
2024/03/07 15:59:06;;;;;;;10.82;7.95;;;;;;;;;;6273465;22;20153;-90
2024/03/07 16:01:35;;;;;;;9.75;8.05;;;;;;;;;;6274573;22;20173;-92
2024/03/07 16:04:05;;;;;;;9.48;8.02;;;;;;;;;;6271942;22;20173;-92
2024/03/07 16:06:33;;;;;;;9.43;6.97;;;;;;;;;;6273512;22;20153;-91
2024/03/07 16:09:00;;;;;;;6.75;6.05;;;;;;;;;;6274424;22;20165;-92
2024/03/07 16:11:28;;;;;;;9.45;8.23;;;;;;;;;;6273821;22;20156;-92
2024/03/07 16:13:57;;;;;;;9.15;7.40;;;;;;;;;;6270759;23;20189;-91
2024/03/07 16:16:25;;;;;;;8.52;7.60;;;;;;;;;;6269464;23;20180;-92
2024/03/07 16:18:53;;;;;;;10.10;8.32;;;;;;;;;;6268409;23;20188;-91
2024/03/07 16:21:22;;;;;;;9.93;8.93;;;;;;;;;;6268549;23;20184;-93
2024/03/07 16:23:52;;;;;;;10.55;8.65;;;;;;;;;;6270279;23;20161;-92
2024/03/07 16:26:20;;;;;;;9.23;7.28;;;;;;;;;;6271939;23;20149;-92
2024/03/07 16:28:48;;;;;;;9.80;8.05;;;;;;;;;;6271306;23;20200;-92
2024/03/07 16:31:16;;;;;;;11.05;8.88;;;;;;;;;;6272391;23;20173;-91